sensor_id;sensor_type;location;lat;lon;timestamp;pressure;altitude;pressure_sealevel;temperature;humidity
27294;BME280;14785;52.556;13.430;2023-03-26T00:00:36;99373.28;;;10.87;100.00
27294;BME280;14785;52.556;13.430;2023-03-26T00:03:03;99384.38;;;10.55;100.00
27294;BME280;14785;52.556;13.430;2023-03-26T00:05:29;99372.63;;;10.64;100.00
27294;BME280;14785;52.556;13.430;2023-03-26T00:07:56;99390.75;;;10.75;100.00
27294;BME280;14785;52.556;13.430;2023-03-26T00:10:22;99416.28;;;10.55;100.00
27294;BME280;14785;52.556;13.430;2023-03-26T00:12:47;99384.84;;;10.59;100.00
27294;BME280;14785;52.556;13.430;2023-03-26T00:15:13;99412.91;;;10.82;100.00
27294;BME280;14785;52.556;13.430;2023-03-26T00:17:38;99388.75;;;10.63;100.00
27294;BME280;14785;52.556;13.430;2023-03-26T00:20:04;99381.56;;;10.42;100.00
27294;BME280;14785;52.556;13.430;2023-03-26T00:22:29;99382.88;;;10.67;100.00
27294;BME280;14785;52.556;13.430;2023-03-26T00:24:55;99395.22;;;10.39;100.00
27294;BME280;14785;52.556;13.430;2023-03-26T00:27:21;99386.19;;;10.69;100.00
27294;BME280;14785;52.556;13.430;2023-03-26T00:29:47;99383.91;;;11.29;100.00
27294;BME280;14785;52.556;13.430;2023-03-26T00:32:13;99377.94;;;10.64;100.00
27294;BME280;14785;52.556;13.430;2023-03-26T00:34:38;99390.81;;;10.46;100.00
27294;BME280;14785;52.556;13.430;2023-03-26T00:37:05;99386.56;;;10.66;100.00
27294;BME280;14785;52.556;13.430;2023-03-26T00:39:31;99370.97;;;10.63;100.00
27294;BME280;14785;52.556;13.430;2023-03-26T00:41:57;99386.19;;;10.69;100.00
27294;BME280;14785;52.556;13.430;2023-03-26T00:44:23;99385.22;;;10.56;100.00
27294;BME280;14785;52.556;13.430;2023-03-26T00:46:48;99387.47;;;10.94;100.00
27294;BME280;14785;52.556;13.430;2023-03-26T00:49:14;99382.66;;;10.83;100.00
27294;BME280;14785;52.556;13.430;2023-03-26T00:51:40;99383.56;;;10.55;100.00
27294;BME280;14785;52.556;13.430;2023-03-26T00:54:06;99379.34;;;10.60;100.00
27294;BME280;14785;52.556;13.430;2023-03-26T00:56:33;99391.59;;;10.61;100.00
27294;BME280;14785;52.556;13.430;2023-03-26T00:58:58;99385.41;;;10.54;100.00
27294;BME280;14785;52.556;13.430;2023-03-26T01:01:26;99400.19;;;10.42;100.00
27294;BME280;14785;52.556;13.430;2023-03-26T01:03:53;99388.50;;;10.22;100.00
27294;BME280;14785;52.556;13.430;2023-03-26T01:06:26;99382.22;;;10.44;100.00
27294;BME280;14785;52.556;13.430;2023-03-26T01:08:58;99385.25;;;10.41;100.00
27294;BME280;14785;52.556;13.430;2023-03-26T01:11:33;99385.13;;;10.85;100.00
27294;BME280;14785;52.556;13.430;2023-03-26T01:14:07;99384.94;;;10.86;100.00
27294;BME280;14785;52.556;13.430;2023-03-26T01:16:37;99399.06;;;10.51;100.00
27294;BME280;14785;52.556;13.430;2023-03-26T01:21:58;99392.34;;;10.55;100.00
27294;BME280;14785;52.556;13.430;2023-03-26T01:24:25;99406.59;;;10.33;100.00
27294;BME280;14785;52.556;13.430;2023-03-26T01:29:40;99446.97;;;9.85;100.00
27294;BME280;14785;52.556;13.430;2023-03-26T01:38:05;99410.72;;;10.50;100.00
27294;BME280;14785;52.556;13.430;2023-03-26T01:40:41;99414.19;;;9.93;100.00
27294;BME280;14785;52.556;13.430;2023-03-26T01:43:27;99420.50;;;10.06;100.00
27294;BME280;14785;52.556;13.430;2023-03-26T01:45:58;99404.81;;;10.19;100.00
27294;BME280;14785;52.556;13.430;2023-03-26T01:48:36;99432.84;;;10.07;100.00
27294;BME280;14785;52.556;13.430;2023-03-26T01:51:03;99411.09;;;10.04;100.00
27294;BME280;14785;52.556;13.430;2023-03-26T01:53:29;99415.38;;;10.05;100.00
27294;BME280;14785;52.556;13.430;2023-03-26T01:58:45;99407.56;;;10.97;100.00
27294;BME280;14785;52.556;13.430;2023-03-26T02:01:25;99417.88;;;10.35;100.00
27294;BME280;14785;52.556;13.430;2023-03-26T02:04:09;99440.69;;;10.15;100.00
27294;BME280;14785;52.556;13.430;2023-03-26T02:06:45;99402.28;;;10.82;100.00
27294;BME280;14785;52.556;13.430;2023-03-26T02:09:16;99427.13;;;10.39;100.00
27294;BME280;14785;52.556;13.430;2023-03-26T02:11:43;99403.88;;;10.27;100.00
27294;BME280;14785;52.556;13.430;2023-03-26T02:14:09;99407.53;;;10.11;100.00
27294;BME280;14785;52.556;13.430;2023-03-26T02:16:35;99400.03;;;10.29;100.00
27294;BME280;14785;52.556;13.430;2023-03-26T02:19:00;99410.13;;;10.19;100.00
27294;BME280;14785;52.556;13.430;2023-03-26T02:21:26;99408.38;;;10.26;100.00
27294;BME280;14785;52.556;13.430;2023-03-26T02:23:56;99401.22;;;10.12;100.00
27294;BME280;14785;52.556;13.430;2023-03-26T02:26:30;99416.47;;;9.81;100.00
27294;BME280;14785;52.556;13.430;2023-03-26T02:28:56;99445.38;;;9.76;100.00
27294;BME280;14785;52.556;13.430;2023-03-26T02:31:23;99447.53;;;9.58;100.00
27294;BME280;14785;52.556;13.430;2023-03-26T02:33:52;99403.66;;;9.99;100.00
27294;BME280;14785;52.556;13.430;2023-03-26T02:36:20;99422.69;;;9.88;100.00
27294;BME280;14785;52.556;13.430;2023-03-26T02:38:48;99429.81;;;9.73;100.00
27294;BME280;14785;52.556;13.430;2023-03-26T02:41:15;99420.19;;;10.09;100.00
27294;BME280;14785;52.556;13.430;2023-03-26T02:43:40;99433.19;;;9.67;100.00
27294;BME280;14785;52.556;13.430;2023-03-26T02:46:06;99434.16;;;9.74;100.00
27294;BME280;14785;52.556;13.430;2023-03-26T02:48:31;99437.28;;;9.92;100.00
27294;BME280;14785;52.556;13.430;2023-03-26T02:50:59;99439.66;;;9.87;100.00
27294;BME280;14785;52.556;13.430;2023-03-26T02:53:25;99427.84;;;10.04;100.00
27294;BME280;14785;52.556;13.430;2023-03-26T02:55:54;99437.41;;;10.13;100.00
27294;BME280;14785;52.556;13.430;2023-03-26T02:58:20;99444.53;;;9.98;100.00
27294;BME280;14785;52.556;13.430;2023-03-26T03:00:46;99431.28;;;10.13;100.00
27294;BME280;14785;52.556;13.430;2023-03-26T03:03:15;99435.34;;;9.86;100.00
27294;BME280;14785;52.556;13.430;2023-03-26T03:05:41;99457.84;;;10.13;100.00
27294;BME280;14785;52.556;13.430;2023-03-26T03:08:08;99439.72;;;9.79;100.00
27294;BME280;14785;52.556;13.430;2023-03-26T03:10:33;99441.44;;;10.09;100.00
27294;BME280;14785;52.556;13.430;2023-03-26T03:12:58;99465.34;;;9.72;100.00
27294;BME280;14785;52.556;13.430;2023-03-26T03:15:24;99462.22;;;9.68;100.00
27294;BME280;14785;52.556;13.430;2023-03-26T03:17:50;99465.72;;;9.69;100.00
27294;BME280;14785;52.556;13.430;2023-03-26T03:20:15;99462.16;;;9.77;100.00
27294;BME280;14785;52.556;13.430;2023-03-26T03:22:41;99462.50;;;9.73;100.00
27294;BME280;14785;52.556;13.430;2023-03-26T03:25:08;99479.97;;;10.05;100.00
27294;BME280;14785;52.556;13.430;2023-03-26T03:27:34;99464.03;;;9.91;100.00
27294;BME280;14785;52.556;13.430;2023-03-26T03:30:04;99437.31;;;10.21;100.00
27294;BME280;14785;52.556;13.430;2023-03-26T03:32:29;99449.00;;;9.98;100.00
27294;BME280;14785;52.556;13.430;2023-03-26T03:34:55;99473.09;;;9.96;100.00
27294;BME280;14785;52.556;13.430;2023-03-26T03:37:20;99471.84;;;10.21;100.00
27294;BME280;14785;52.556;13.430;2023-03-26T03:39:46;99439.59;;;10.53;100.00
27294;BME280;14785;52.556;13.430;2023-03-26T03:42:11;99450.00;;;10.69;100.00
27294;BME280;14785;52.556;13.430;2023-03-26T03:44:37;99466.91;;;10.47;100.00
27294;BME280;14785;52.556;13.430;2023-03-26T03:47:02;99451.50;;;10.57;100.00
27294;BME280;14785;52.556;13.430;2023-03-26T03:49:28;99458.81;;;10.70;100.00
27294;BME280;14785;52.556;13.430;2023-03-26T03:51:53;99452.38;;;10.64;100.00
27294;BME280;14785;52.556;13.430;2023-03-26T03:54:19;99459.56;;;10.49;100.00
27294;BME280;14785;52.556;13.430;2023-03-26T03:56:45;99466.88;;;10.04;100.00
27294;BME280;14785;52.556;13.430;2023-03-26T03:59:11;99461.59;;;10.18;100.00
27294;BME280;14785;52.556;13.430;2023-03-26T04:01:36;99462.53;;;10.25;100.00
27294;BME280;14785;52.556;13.430;2023-03-26T04:04:02;99476.44;;;9.76;100.00
27294;BME280;14785;52.556;13.430;2023-03-26T04:06:27;99475.41;;;10.28;100.00
27294;BME280;14785;52.556;13.430;2023-03-26T04:08:54;99466.69;;;10.05;100.00
27294;BME280;14785;52.556;13.430;2023-03-26T04:11:20;99468.94;;;10.16;100.00
27294;BME280;14785;52.556;13.430;2023-03-26T04:13:45;99469.78;;;9.94;100.00
27294;BME280;14785;52.556;13.430;2023-03-26T04:16:10;99473.31;;;10.09;100.00
27294;BME280;14785;52.556;13.430;2023-03-26T04:18:36;99469.75;;;10.17;100.00
27294;BME280;14785;52.556;13.430;2023-03-26T04:21:02;99467.84;;;10.25;100.00
27294;BME280;14785;52.556;13.430;2023-03-26T04:23:27;99477.91;;;10.15;100.00
27294;BME280;14785;52.556;13.430;2023-03-26T04:25:53;99483.09;;;9.71;100.00
27294;BME280;14785;52.556;13.430;2023-03-26T04:30:52;99475.41;;;10.28;100.00
27294;BME280;14785;52.556;13.430;2023-03-26T04:33:18;99481.31;;;10.24;100.00
27294;BME280;14785;52.556;13.430;2023-03-26T04:35:45;99476.19;;;10.22;100.00
27294;BME280;14785;52.556;13.430;2023-03-26T04:38:12;99472.94;;;10.12;100.00
27294;BME280;14785;52.556;13.430;2023-03-26T04:40:40;99469.53;;;10.04;100.00
27294;BME280;14785;52.556;13.430;2023-03-26T04:43:07;99470.50;;;9.88;100.00
27294;BME280;14785;52.556;13.430;2023-03-26T04:45:35;99473.78;;;9.76;100.00
27294;BME280;14785;52.556;13.430;2023-03-26T04:48:01;99489.50;;;10.00;100.00
27294;BME280;14785;52.556;13.430;2023-03-26T04:50:26;99481.66;;;9.84;100.00
27294;BME280;14785;52.556;13.430;2023-03-26T04:52:52;99462.06;;;10.07;100.00
27294;BME280;14785;52.556;13.430;2023-03-26T04:55:26;99464.91;;;10.20;100.00
27294;BME280;14785;52.556;13.430;2023-03-26T04:57:54;99477.13;;;9.92;100.00
27294;BME280;14785;52.556;13.430;2023-03-26T05:00:21;99467.59;;;9.83;100.00
27294;BME280;14785;52.556;13.430;2023-03-26T05:02:46;99483.16;;;9.86;100.00
27294;BME280;14785;52.556;13.430;2023-03-26T05:05:15;99472.53;;;9.86;100.00
27294;BME280;14785;52.556;13.430;2023-03-26T05:07:41;99479.31;;;10.03;100.00
27294;BME280;14785;52.556;13.430;2023-03-26T05:10:06;99479.69;;;10.00;100.00
27294;BME280;14785;52.556;13.430;2023-03-26T05:12:32;99488.22;;;9.73;100.00
27294;BME280;14785;52.556;13.430;2023-03-26T05:14:57;99483.81;;;9.65;100.00
27294;BME280;14785;52.556;13.430;2023-03-26T05:17:23;99480.84;;;9.83;100.00
27294;BME280;14785;52.556;13.430;2023-03-26T05:19:48;99474.34;;;9.71;100.00
27294;BME280;14785;52.556;13.430;2023-03-26T05:22:16;99489.56;;;9.54;100.00
27294;BME280;14785;52.556;13.430;2023-03-26T05:24:41;99467.38;;;10.07;100.00
27294;BME280;14785;52.556;13.430;2023-03-26T05:27:06;99486.53;;;9.80;100.00
27294;BME280;14785;52.556;13.430;2023-03-26T05:29:31;99479.22;;;9.59;100.00
27294;BME280;14785;52.556;13.430;2023-03-26T05:31:57;99482.44;;;9.92;100.00
27294;BME280;14785;52.556;13.430;2023-03-26T05:34:22;99489.09;;;9.51;100.00
27294;BME280;14785;52.556;13.430;2023-03-26T05:36:50;99486.56;;;9.95;100.00
27294;BME280;14785;52.556;13.430;2023-03-26T05:39:16;99498.06;;;9.87;100.00
27294;BME280;14785;52.556;13.430;2023-03-26T05:41:41;99488.81;;;9.83;100.00
27294;BME280;14785;52.556;13.430;2023-03-26T05:44:06;99481.34;;;10.01;100.00
27294;BME280;14785;52.556;13.430;2023-03-26T05:46:31;99506.41;;;9.61;100.00
27294;BME280;14785;52.556;13.430;2023-03-26T05:48:57;99496.56;;;9.70;100.00
27294;BME280;14785;52.556;13.430;2023-03-26T05:51:22;99496.44;;;9.86;100.00
27294;BME280;14785;52.556;13.430;2023-03-26T05:53:47;99487.47;;;9.64;100.00
27294;BME280;14785;52.556;13.430;2023-03-26T05:56:13;99482.91;;;9.73;100.00
27294;BME280;14785;52.556;13.430;2023-03-26T05:58:38;99465.34;;;9.72;100.00
27294;BME280;14785;52.556;13.430;2023-03-26T06:01:05;99490.56;;;10.13;100.00
27294;BME280;14785;52.556;13.430;2023-03-26T06:03:32;99496.03;;;9.52;100.00
27294;BME280;14785;52.556;13.430;2023-03-26T06:05:58;99496.41;;;10.52;100.00
27294;BME280;14785;52.556;13.430;2023-03-26T06:08:23;99504.66;;;10.28;100.00
27294;BME280;14785;52.556;13.430;2023-03-26T06:10:49;99503.31;;;9.95;100.00
27294;BME280;14785;52.556;13.430;2023-03-26T06:13:15;99499.13;;;9.63;100.00
27294;BME280;14785;52.556;13.430;2023-03-26T06:15:41;99511.38;;;9.64;100.00
27294;BME280;14785;52.556;13.430;2023-03-26T06:18:06;99503.69;;;9.02;100.00
27294;BME280;14785;52.556;13.430;2023-03-26T06:20:31;99502.13;;;9.38;100.00
27294;BME280;14785;52.556;13.430;2023-03-26T06:22:56;99509.91;;;9.62;100.00
27294;BME280;14785;52.556;13.430;2023-03-26T06:25:22;99510.09;;;9.98;100.00
27294;BME280;14785;52.556;13.430;2023-03-26T06:27:47;99515.50;;;9.67;100.00
27294;BME280;14785;52.556;13.430;2023-03-26T06:30:12;99507.16;;;9.70;100.00
27294;BME280;14785;52.556;13.430;2023-03-26T06:32:38;99512.22;;;9.42;100.00
27294;BME280;14785;52.556;13.430;2023-03-26T06:35:03;99517.22;;;8.84;100.00
27294;BME280;14785;52.556;13.430;2023-03-26T06:37:29;99511.72;;;9.16;100.00
27294;BME280;14785;52.556;13.430;2023-03-26T06:39:54;99518.94;;;9.00;100.00
27294;BME280;14785;52.556;13.430;2023-03-26T06:42:20;99511.50;;;9.71;100.00
27294;BME280;14785;52.556;13.430;2023-03-26T06:44:45;99522.56;;;9.07;100.00
27294;BME280;14785;52.556;13.430;2023-03-26T06:47:10;99517.22;;;9.97;100.00
27294;BME280;14785;52.556;13.430;2023-03-26T06:49:35;99510.34;;;9.88;100.00
27294;BME280;14785;52.556;13.430;2023-03-26T06:52:02;99511.34;;;9.50;100.00
27294;BME280;14785;52.556;13.430;2023-03-26T06:54:27;99497.03;;;10.11;100.00
27294;BME280;14785;52.556;13.430;2023-03-26T06:56:53;99505.06;;;9.43;100.00
27294;BME280;14785;52.556;13.430;2023-03-26T06:59:18;99507.53;;;9.67;100.00
27294;BME280;14785;52.556;13.430;2023-03-26T07:01:44;99508.91;;;9.63;100.00
27294;BME280;14785;52.556;13.430;2023-03-26T07:04:09;99513.28;;;9.56;100.00
27294;BME280;14785;52.556;13.430;2023-03-26T07:06:34;99508.16;;;9.92;100.00
27294;BME280;14785;52.556;13.430;2023-03-26T07:09:00;99516.09;;;9.77;100.00
27294;BME280;14785;52.556;13.430;2023-03-26T07:11:25;99505.53;;;10.06;100.00
27294;BME280;14785;52.556;13.430;2023-03-26T07:13:51;99502.25;;;10.04;100.00
27294;BME280;14785;52.556;13.430;2023-03-26T07:16:16;99509.59;;;10.75;100.00
27294;BME280;14785;52.556;13.430;2023-03-26T07:18:41;99504.25;;;10.02;100.00
27294;BME280;14785;52.556;13.430;2023-03-26T07:21:07;99516.84;;;10.23;100.00
27294;BME280;14785;52.556;13.430;2023-03-26T07:23:32;99498.59;;;10.92;100.00
27294;BME280;14785;52.556;13.430;2023-03-26T07:25:58;99506.88;;;10.39;100.00
27294;BME280;14785;52.556;13.430;2023-03-26T07:36:18;99517.31;;;10.26;100.00
27294;BME280;14785;52.556;13.430;2023-03-26T07:46:47;99512.47;;;10.59;100.00
27294;BME280;14785;52.556;13.430;2023-03-26T07:49:13;99493.44;;;10.76;100.00
27294;BME280;14785;52.556;13.430;2023-03-26T07:51:39;99511.09;;;10.19;100.00
27294;BME280;14785;52.556;13.430;2023-03-26T07:54:05;99505.03;;;10.54;100.00
27294;BME280;14785;52.556;13.430;2023-03-26T07:56:32;99513.44;;;10.43;100.00
27294;BME280;14785;52.556;13.430;2023-03-26T08:04:19;99503.38;;;10.24;100.00
27294;BME280;14785;52.556;13.430;2023-03-26T08:06:49;99514.72;;;10.18;100.00
27294;BME280;14785;52.556;13.430;2023-03-26T08:09:22;99519.13;;;10.11;100.00
27294;BME280;14785;52.556;13.430;2023-03-26T08:19:33;99494.28;;;11.12;100.00
27294;BME280;14785;52.556;13.430;2023-03-26T08:22:09;99516.59;;;10.32;100.00
27294;BME280;14785;52.556;13.430;2023-03-26T08:24:42;99498.06;;;10.53;100.00
27294;BME280;14785;52.556;13.430;2023-03-26T08:33:01;99507.03;;;10.52;100.00
27294;BME280;14785;52.556;13.430;2023-03-26T08:35:28;99505.94;;;10.61;100.00
27294;BME280;14785;52.556;13.430;2023-03-26T08:37:53;99496.81;;;9.98;100.00
27294;BME280;14785;52.556;13.430;2023-03-26T08:41:21;99496.41;;;10.67;100.00
27294;BME280;14785;52.556;13.430;2023-03-26T09:14:57;99484.59;;;11.05;100.00
27294;BME280;14785;52.556;13.430;2023-03-26T10:04:40;99506.41;;;9.61;100.00
27294;BME280;14785;52.556;13.430;2023-03-26T10:12:34;99513.72;;;9.82;100.00
27294;BME280;14785;52.556;13.430;2023-03-26T10:25:53;99507.22;;;10.36;100.00
27294;BME280;14785;52.556;13.430;2023-03-26T10:41:07;99502.78;;;10.00;100.00
27294;BME280;14785;52.556;13.430;2023-03-26T10:43:42;99501.19;;;10.71;100.00
27294;BME280;14785;52.556;13.430;2023-03-26T10:51:45;99504.13;;;9.96;100.00
27294;BME280;14785;52.556;13.430;2023-03-26T10:56:44;99509.91;;;9.62;100.00
27294;BME280;14785;52.556;13.430;2023-03-26T10:59:11;99500.16;;;10.29;100.00
27294;BME280;14785;52.556;13.430;2023-03-26T11:01:45;99502.66;;;10.16;100.00
27294;BME280;14785;52.556;13.430;2023-03-26T11:04:18;99496.31;;;10.31;100.00
27294;BME280;14785;52.556;13.430;2023-03-26T11:06:56;99500.56;;;10.03;100.00
27294;BME280;14785;52.556;13.430;2023-03-26T11:09:30;99493.25;;;11.28;100.00
27294;BME280;14785;52.556;13.430;2023-03-26T11:14:33;99494.59;;;11.38;100.00
27294;BME280;14785;52.556;13.430;2023-03-26T11:17:09;99496.00;;;10.84;100.00
27294;BME280;14785;52.556;13.430;2023-03-26T11:19:42;99494.84;;;11.22;100.00
27294;BME280;14785;52.556;13.430;2023-03-26T11:22:16;99490.78;;;11.26;100.00
27294;BME280;14785;52.556;13.430;2023-03-26T11:25:03;99488.28;;;11.04;100.00
27294;BME280;14785;52.556;13.430;2023-03-26T11:32:36;99475.84;;;11.95;100.00
27294;BME280;14785;52.556;13.430;2023-03-26T11:37:42;99487.19;;;12.38;100.00
27294;BME280;14785;52.556;13.430;2023-03-26T11:40:17;99473.25;;;12.83;100.00
27294;BME280;14785;52.556;13.430;2023-03-26T11:42:45;99473.47;;;11.58;100.00
27294;BME280;14785;52.556;13.430;2023-03-26T11:45:13;99465.00;;;12.31;100.00
27294;BME280;14785;52.556;13.430;2023-03-26T11:47:45;99473.63;;;12.67;100.00
27294;BME280;14785;52.556;13.430;2023-03-26T11:50:17;99476.88;;;11.94;100.00
27294;BME280;14785;52.556;13.430;2023-03-26T11:52:44;99475.81;;;11.68;100.00
27294;BME280;14785;52.556;13.430;2023-03-26T11:55:10;99469.72;;;12.29;100.00
27294;BME280;14785;52.556;13.430;2023-03-26T11:57:36;99465.16;;;12.63;100.00
27294;BME280;14785;52.556;13.430;2023-03-26T12:00:05;99465.91;;;11.83;100.00
27294;BME280;14785;52.556;13.430;2023-03-26T12:02:42;99453.59;;;12.90;100.00
27294;BME280;14785;52.556;13.430;2023-03-26T12:07:58;99459.28;;;12.34;100.00
27294;BME280;14785;52.556;13.430;2023-03-26T12:12:53;99450.53;;;12.46;100.00
27294;BME280;14785;52.556;13.430;2023-03-26T12:15:19;99443.34;;;12.40;100.00
27294;BME280;14785;52.556;13.430;2023-03-26T12:17:46;99441.44;;;12.81;100.00
27294;BME280;14785;52.556;13.430;2023-03-26T12:22:50;99435.47;;;13.66;100.00
27294;BME280;14785;52.556;13.430;2023-03-26T12:27:48;99421.28;;;13.26;100.00
27294;BME280;14785;52.556;13.430;2023-03-26T12:30:18;99413.44;;;13.18;100.00
27294;BME280;14785;52.556;13.430;2023-03-26T12:32:44;99407.31;;;14.59;100.00
27294;BME280;14785;52.556;13.430;2023-03-26T12:35:44;99408.69;;;14.11;100.00
27294;BME280;14785;52.556;13.430;2023-03-26T12:43:42;99405.66;;;13.62;100.00
27294;BME280;14785;52.556;13.430;2023-03-26T12:48:56;99393.06;;;14.28;100.00
27294;BME280;14785;52.556;13.430;2023-03-26T12:53:55;99412.34;;;12.93;100.00
27294;BME280;14785;52.556;13.430;2023-03-26T13:01:36;99432.97;;;13.38;100.00
27294;BME280;14785;52.556;13.430;2023-03-26T13:06:51;99398.88;;;13.60;100.00
27294;BME280;14785;52.556;13.430;2023-03-26T13:14:46;99414.91;;;13.14;100.00
27294;BME280;14785;52.556;13.430;2023-03-26T13:28:03;99384.81;;;14.16;100.00
27294;BME280;14785;52.556;13.430;2023-03-26T13:30:43;99396.59;;;15.03;100.00
27294;BME280;14785;52.556;13.430;2023-03-26T13:33:25;99401.53;;;13.73;100.00
27294;BME280;14785;52.556;13.430;2023-03-26T13:41:21;99406.06;;;13.33;100.00
27294;BME280;14785;52.556;13.430;2023-03-26T13:46:33;99391.34;;;12.77;100.00
27294;BME280;14785;52.556;13.430;2023-03-26T13:49:15;99380.81;;;13.42;100.00
27294;BME280;14785;52.556;13.430;2023-03-26T13:56:46;99413.53;;;12.77;100.00
27294;BME280;14785;52.556;13.430;2023-03-26T13:59:57;99397.16;;;12.87;100.00
27294;BME280;14785;52.556;13.430;2023-03-26T14:02:07;99403.34;;;12.47;100.00
27294;BME280;14785;52.556;13.430;2023-03-26T14:04:36;99392.72;;;13.59;100.00
27294;BME280;14785;52.556;13.430;2023-03-26T14:09:52;99383.16;;;14.28;100.00
27294;BME280;14785;52.556;13.430;2023-03-26T14:14:54;99385.13;;;13.50;100.00
27294;BME280;14785;52.556;13.430;2023-03-26T14:17:26;99389.56;;;14.01;100.00
27294;BME280;14785;52.556;13.430;2023-03-26T14:26:05;99402.22;;;14.51;100.00
27294;BME280;14785;52.556;13.430;2023-03-26T14:46:38;99374.94;;;16.46;100.00
27294;BME280;14785;52.556;13.430;2023-03-26T14:49:15;99384.09;;;15.78;100.00
27294;BME280;14785;52.556;13.430;2023-03-26T14:54:32;99385.44;;;14.18;100.00
27294;BME280;14785;52.556;13.430;2023-03-26T15:10:42;99369.44;;;15.80;100.00
27294;BME280;14785;52.556;13.430;2023-03-26T15:13:16;99361.88;;;13.76;100.00
27294;BME280;14785;52.556;13.430;2023-03-26T15:39:39;99363.94;;;13.61;100.00
27294;BME280;14785;52.556;13.430;2023-03-26T15:42:21;99355.56;;;14.34;100.00
27294;BME280;14785;52.556;13.430;2023-03-26T15:52:27;99357.03;;;15.05;100.00
27294;BME280;14785;52.556;13.430;2023-03-26T15:55:04;99358.13;;;14.98;100.00
27294;BME280;14785;52.556;13.430;2023-03-26T15:57:36;99354.03;;;15.94;100.00
27294;BME280;14785;52.556;13.430;2023-03-26T16:00:17;99353.72;;;16.20;100.00
27294;BME280;14785;52.556;13.430;2023-03-26T16:21:22;99359.16;;;15.53;100.00
27294;BME280;14785;52.556;13.430;2023-03-26T16:33:36;99368.50;;;14.44;100.00
27294;BME280;14785;52.556;13.430;2023-03-26T16:38:44;99375.94;;;14.79;100.00
27294;BME280;14785;52.556;13.430;2023-03-26T16:41:15;99371.88;;;14.70;100.00
27294;BME280;14785;52.556;13.430;2023-03-26T16:46:27;99380.00;;;13.48;100.00
27294;BME280;14785;52.556;13.430;2023-03-26T16:51:25;99379.06;;;12.82;100.00
27294;BME280;14785;52.556;13.430;2023-03-26T16:56:44;99382.41;;;13.04;100.00
27294;BME280;14785;52.556;13.430;2023-03-26T17:01:49;99385.13;;;13.50;100.00
27294;BME280;14785;52.556;13.430;2023-03-26T17:04:20;99390.66;;;13.61;100.00
27294;BME280;14785;52.556;13.430;2023-03-26T17:19:41;99383.91;;;14.48;100.00
27294;BME280;14785;52.556;13.430;2023-03-26T17:22:13;99390.88;;;13.66;100.00
27294;BME280;14785;52.556;13.430;2023-03-26T17:32:22;99394.69;;;14.79;100.00
27294;BME280;14785;52.556;13.430;2023-03-26T17:42:25;99407.44;;;14.33;100.00
27294;BME280;14785;52.556;13.430;2023-03-26T17:50:22;99411.53;;;14.36;100.00
27294;BME280;14785;52.556;13.430;2023-03-26T17:55:29;99417.28;;;14.33;100.00
27294;BME280;14785;52.556;13.430;2023-03-26T17:57:59;99422.16;;;14.62;100.00
27294;BME280;14785;52.556;13.430;2023-03-26T18:00:30;99428.28;;;14.69;100.00
27294;BME280;14785;52.556;13.430;2023-03-26T18:03:00;99425.81;;;14.67;100.00
27294;BME280;14785;52.556;13.430;2023-03-26T18:05:27;99423.75;;;14.69;100.00
27294;BME280;14785;52.556;13.430;2023-03-26T18:21:03;99432.91;;;14.42;100.00
27294;BME280;14785;52.556;13.430;2023-03-26T18:23:37;99431.44;;;14.53;100.00
27294;BME280;14785;52.556;13.430;2023-03-26T18:26:09;99435.59;;;14.93;100.00
27294;BME280;14785;52.556;13.430;2023-03-26T18:28:40;99438.13;;;14.81;100.00
27294;BME280;14785;52.556;13.430;2023-03-26T18:31:07;99434.88;;;14.66;100.00
27294;BME280;14785;52.556;13.430;2023-03-26T18:33:43;99441.31;;;14.59;100.00
27294;BME280;14785;52.556;13.430;2023-03-26T18:36:09;99440.19;;;13.96;100.00
27294;BME280;14785;52.556;13.430;2023-03-26T18:38:35;99443.47;;;13.33;100.00
27294;BME280;14785;52.556;13.430;2023-03-26T18:41:00;99444.94;;;12.82;100.00
27294;BME280;14785;52.556;13.430;2023-03-26T18:43:26;99449.72;;;12.93;100.00
27294;BME280;14785;52.556;13.430;2023-03-26T18:45:51;99450.59;;;13.06;100.00
27294;BME280;14785;52.556;13.430;2023-03-26T18:48:24;99447.78;;;13.34;100.00
27294;BME280;14785;52.556;13.430;2023-03-26T18:50:52;99458.47;;;13.47;100.00
27294;BME280;14785;52.556;13.430;2023-03-26T18:53:19;99447.81;;;13.73;100.00
27294;BME280;14785;52.556;13.430;2023-03-26T18:55:46;99457.66;;;13.53;100.00
27294;BME280;14785;52.556;13.430;2023-03-26T18:58:21;99460.31;;;13.40;100.00
27294;BME280;14785;52.556;13.430;2023-03-26T19:00:48;99448.78;;;13.20;100.00
27294;BME280;14785;52.556;13.430;2023-03-26T19:03:17;99458.47;;;13.67;100.00
27294;BME280;14785;52.556;13.430;2023-03-26T19:05:44;99452.72;;;13.37;100.00
27294;BME280;14785;52.556;13.430;2023-03-26T19:08:10;99453.31;;;13.26;100.00
27294;BME280;14785;52.556;13.430;2023-03-26T19:10:36;99446.13;;;13.20;100.00
27294;BME280;14785;52.556;13.430;2023-03-26T19:13:02;99442.88;;;13.57;100.00
27294;BME280;14785;52.556;13.430;2023-03-26T19:15:31;99453.94;;;13.41;100.00
27294;BME280;14785;52.556;13.430;2023-03-26T19:17:58;99456.22;;;13.83;100.00
27294;BME280;14785;52.556;13.430;2023-03-26T19:20:36;99450.91;;;13.77;100.00
27294;BME280;14785;52.556;13.430;2023-03-26T19:23:03;99464.66;;;13.54;100.00
27294;BME280;14785;52.556;13.430;2023-03-26T19:25:32;99460.50;;;13.38;100.00
27294;BME280;14785;52.556;13.430;2023-03-26T19:28:00;99454.34;;;13.44;100.00
27294;BME280;14785;52.556;13.430;2023-03-26T19:30:30;99460.69;;;13.24;100.00
27294;BME280;14785;52.556;13.430;2023-03-26T19:33:00;99464.75;;;13.07;100.00